Time;durP1;ratioP1;P1;durP2;ratioP2;P2;SDS_P1;SDS_P2;PMS_P1;PMS_P2;Temp;Humidity;BMP_temperature;BMP_pressure;BME280_temperature;BME280_humidity;BME280_pressure;Samples;Min_cycle;Max_cycle;Signal;HPM_P1;HPM_P2
2022/11/03 00:01:39;;;;;;;3.13;1.40;;;;;;;17.35;29.61;94371.41;5036515;28;20029;-75
2022/11/03 00:04:07;;;;;;;7.25;1.83;;;;;;;17.15;29.62;94367.78;5011959;28;20075;-75
2022/11/03 00:06:32;;;;;;;2.92;1.58;;;;;;;17.02;29.59;94358.13;5035519;28;20170;-76
2022/11/03 00:09:00;;;;;;;4.90;1.52;;;;;;;17.15;29.84;94381.22;5035680;28;20481;-76
2022/11/03 00:11:25;;;;;;;3.92;1.98;;;;;;;17.21;30.36;94370.97;5036111;28;20032;-77
2022/11/03 00:13:51;;;;;;;3.50;1.50;;;;;;;17.10;29.51;94353.75;5036702;28;20020;-75
2022/11/03 00:16:17;;;;;;;5.90;1.73;;;;;;;17.31;29.65;94380.47;5036620;28;20057;-75
2022/11/03 00:18:42;;;;;;;7.45;1.38;;;;;;;17.23;29.55;94365.28;5036553;28;20116;-76
2022/11/03 00:21:09;;;;;;;4.97;2.08;;;;;;;17.25;30.38;94365.72;5036645;28;20472;-76
2022/11/03 00:23:38;;;;;;;4.00;2.25;;;;;;;17.20;30.17;94360.59;5011283;28;20020;-76
2022/11/03 00:26:03;;;;;;;4.55;2.53;;;;;;;17.37;30.54;94390.66;5035756;28;20020;-76
2022/11/03 00:28:33;;;;;;;3.40;1.85;;;;;;;17.33;30.62;94379.03;5029108;28;20090;-75
2022/11/03 00:31:00;;;;;;;4.18;1.60;;;;;;;17.38;30.51;94391.44;5034303;28;20033;-75
2022/11/03 00:33:29;;;;;;;1.50;0.80;;;;;;;17.37;30.50;94381.81;5036139;28;20029;-76
2022/11/03 00:36:00;;;;;;;2.58;1.23;;;;;;;17.10;30.63;94354.53;5033183;28;20026;-75
2022/11/03 00:38:26;;;;;;;2.97;1.48;;;;;;;17.22;30.77;94375.25;5037072;28;20021;-75
2022/11/03 00:40:59;;;;;;;4.40;1.52;;;;;;;17.00;30.96;94352.34;5010823;28;20027;-77
2022/11/03 00:43:26;;;;;;;2.67;1.42;;;;;;;17.19;30.84;94389.38;5032009;28;20082;-75
2022/11/03 00:45:52;;;;;;;4.30;1.90;;;;;;;17.18;30.96;94388.59;5038049;28;20032;-76
2022/11/03 00:48:36;;;;;;;4.22;1.50;;;;;;;17.21;30.61;94387.09;5035148;28;20115;-76
2022/11/03 00:51:09;;;;;;;2.55;1.40;;;;;;;17.10;31.08;94388.69;5033546;28;20078;-75
2022/11/03 00:53:42;;;;;;;2.45;1.30;;;;;;;16.93;30.94;94370.94;5035660;28;20517;-76
2022/11/03 00:56:28;;;;;;;3.47;1.73;;;;;;;17.02;31.19;94381.53;5036435;28;20565;-77
2022/11/03 00:58:54;;;;;;;6.40;2.00;;;;;;;16.99;31.74;94391.06;5018581;28;20779;-75
2022/11/03 01:01:41;;;;;;;5.63;1.83;;;;;;;17.01;31.84;94388.06;5033883;28;20032;-75
2022/11/03 01:06:53;;;;;;;;;;;;;;;17.06;32.03;94391.25;5037185;28;20027;-75
2022/11/03 01:09:18;;;;;;;3.72;1.90;;;;;;;16.99;32.06;94391.06;5033898;28;19962;-75
2022/11/03 01:11:52;;;;;;;4.22;2.30;;;;;;;17.05;32.13;94388.94;5034592;28;20020;-76
2022/11/03 01:14:17;;;;;;;4.75;2.05;;;;;;;16.83;31.72;94355.28;5035068;28;20708;-75
2022/11/03 01:16:42;;;;;;;5.57;2.10;;;;;;;16.69;31.90;94366.38;5034279;28;20051;-75
2022/11/03 01:19:08;;;;;;;2.95;1.77;;;;;;;16.87;31.93;94385.69;5035874;28;20028;-75
2022/11/03 01:21:34;;;;;;;4.63;1.80;;;;;;;16.89;31.86;94380.00;5034212;28;20028;-75
2022/11/03 01:24:01;;;;;;;13.05;2.88;;;;;;;16.97;32.10;94387.94;5022032;28;20029;-76
2022/11/03 01:26:26;;;;;;;5.10;2.55;;;;;;;17.00;32.17;94392.66;5016804;28;20403;-75
2022/11/03 01:28:52;;;;;;;6.75;1.88;;;;;;;17.05;32.25;94391.63;5036782;28;20028;-75
2022/11/03 01:31:23;;;;;;;5.82;1.77;;;;;;;17.06;32.30;94387.81;5034395;28;20481;-75
2022/11/03 01:33:50;;;;;;;6.03;2.33;;;;;;;16.87;32.79;94369.59;5035332;28;20040;-76
2022/11/03 01:36:17;;;;;;;7.18;2.33;;;;;;;16.84;32.46;94372.97;5034945;28;20536;-75
2022/11/03 01:38:42;;;;;;;5.97;3.05;;;;;;;16.97;32.43;94387.16;5035453;28;20305;-76
2022/11/03 01:41:14;;;;;;;5.07;1.73;;;;;;;16.98;32.53;94392.19;5034246;28;20024;-75
2022/11/03 01:43:40;;;;;;;7.57;2.40;;;;;;;16.90;32.81;94395.78;5035717;28;20047;-76
2022/11/03 01:46:08;;;;;;;5.53;2.33;;;;;;;16.85;33.11;94398.72;5036508;28;20556;-75
2022/11/03 01:48:35;;;;;;;5.40;2.17;;;;;;;16.90;33.07;94397.69;5035696;28;20017;-75
2022/11/03 01:51:04;;;;;;;5.18;2.08;;;;;;;16.90;32.80;94397.69;5036680;28;20036;-76
2022/11/03 01:53:30;;;;;;;4.18;2.25;;;;;;;16.84;32.96;94383.72;5035553;28;20115;-75
2022/11/03 01:55:58;;;;;;;6.70;2.45;;;;;;;16.89;32.97;94396.91;5018372;28;20041;-74
2022/11/03 01:58:30;;;;;;;5.32;2.33;;;;;;;16.82;33.33;94375.19;5033223;28;20037;-76
2022/11/03 02:00:58;;;;;;;4.45;2.45;;;;;;;16.88;33.33;94389.97;5033898;28;20104;-77
2022/11/03 02:03:26;;;;;;;3.72;2.00;;;;;;;16.79;33.29;94392.00;5035470;28;20022;-76
2022/11/03 02:05:52;;;;;;;3.55;2.33;;;;;;;16.78;33.56;94406.53;5034142;28;20025;-75
2022/11/03 02:08:35;;;;;;;5.75;2.75;;;;;;;16.71;33.95;94411.72;5035725;28;20685;-75
2022/11/03 02:12:05;;;;;;;6.30;3.30;;;;;;;16.61;33.95;94401.41;5035306;28;20455;-75
2022/11/03 02:13:45;;;;;;;12.82;2.90;;;;;;;16.60;33.82;94389.88;5035144;28;20149;-74
2022/11/03 02:16:11;;;;;;;7.22;3.15;;;;;;;16.51;34.00;94381.16;5038751;28;20541;-75
2022/11/03 02:18:38;;;;;;;6.10;2.97;;;;;;;16.50;34.34;94376.13;5037096;28;20025;-75
2022/11/03 02:21:11;;;;;;;5.78;2.95;;;;;;;16.73;34.62;94404.88;5038466;28;20029;-76
2022/11/03 02:23:47;;;;;;;4.60;3.25;;;;;;;16.66;34.54;94399.28;5037706;28;20171;-75
2022/11/03 02:26:15;;;;;;;6.45;3.10;;;;;;;16.57;35.13;94379.03;5021731;28;20048;-75
2022/11/03 02:28:40;;;;;;;4.57;3.08;;;;;;;16.68;34.85;94402.41;5038355;28;20110;-76
2022/11/03 02:31:20;;;;;;;3.85;2.42;;;;;;;16.59;34.56;94374.09;5038666;28;20702;-75
2022/11/03 02:33:58;;;;;;;9.50;2.97;;;;;;;16.72;35.04;94402.53;5021315;28;21389;-75
2022/11/03 02:36:39;;;;;;;5.53;2.88;;;;;;;16.75;35.01;94402.63;5037540;28;20042;-75
2022/11/03 02:39:11;;;;;;;6.28;3.30;;;;;;;16.79;34.87;94394.69;5029249;28;20397;-76
2022/11/03 02:41:39;;;;;;;5.72;3.15;;;;;;;16.80;35.13;94393.56;5038198;28;20120;-76
2022/11/03 02:44:10;;;;;;;5.97;2.83;;;;;;;16.64;35.89;94401.53;5038180;28;20035;-75
2022/11/03 02:46:38;;;;;;;9.60;2.80;;;;;;;16.58;36.02;94400.16;5019073;28;20524;-75
2022/11/03 02:49:03;;;;;;;7.60;3.05;;;;;;;16.48;36.02;94400.63;5036545;28;20075;-75
2022/11/03 02:51:29;;;;;;;12.80;4.50;;;;;;;16.47;35.90;94388.34;5037435;28;20029;-76
2022/11/03 02:54:41;;;;;;;6.25;3.45;;;;;;;16.53;36.72;94397.72;5038229;28;20036;-75
2022/11/03 02:57:18;;;;;;;10.57;4.25;;;;;;;16.55;36.31;94397.38;4956284;28;20117;-75
2022/11/03 02:59:56;;;;;;;15.40;4.70;;;;;;;16.49;36.48;94379.94;5032585;28;20028;-76
2022/11/03 03:02:31;;;;;;;4.93;3.22;;;;;;;16.61;36.16;94401.41;5037915;28;20044;-76
2022/11/03 03:04:58;;;;;;;7.85;3.55;;;;;;;16.64;36.67;94406.09;5037979;28;20036;-76
2022/11/03 03:07:29;;;;;;;7.28;3.83;;;;;;;16.50;36.81;94382.28;5036935;28;20033;-76
2022/11/03 03:10:02;;;;;;;10.13;5.22;;;;;;;16.66;36.69;94406.56;5037250;28;20021;-75
2022/11/03 03:12:31;;;;;;;5.53;3.28;;;;;;;16.59;36.83;94407.13;5038424;28;20028;-76
2022/11/03 03:14:58;;;;;;;8.32;3.80;;;;;;;16.41;36.42;94372.78;5036495;28;20537;-76
2022/11/03 03:17:41;;;;;;;7.25;3.60;;;;;;;16.48;37.16;94403.31;5035974;28;20132;-75
2022/11/03 03:20:13;;;;;;;6.93;3.65;;;;;;;16.33;37.27;94379.81;5035348;28;20024;-75
2022/11/03 03:22:57;;;;;;;9.35;5.00;;;;;;;16.49;37.58;94396.03;5020000;28;20025;-75
2022/11/03 03:25:37;;;;;;;10.10;4.93;;;;;;;16.33;37.44;94385.97;5034424;28;20469;-76
2022/11/03 03:28:18;;;;;;;6.43;3.28;;;;;;;16.39;37.63;94394.59;5037508;28;20082;-76
2022/11/03 03:30:45;;;;;;;7.03;4.07;;;;;;;16.26;37.68;94372.31;5036058;28;20110;-76
2022/11/03 03:33:12;;;;;;;7.75;3.50;;;;;;;16.39;37.74;94386.53;5036643;28;20029;-75
2022/11/03 03:35:40;;;;;;;7.68;3.17;;;;;;;16.45;37.38;94397.84;5036511;28;20468;-75
2022/11/03 03:38:12;;;;;;;7.45;4.25;;;;;;;16.41;37.07;94392.34;5037477;28;20141;-76
2022/11/03 03:40:41;;;;;;;7.00;3.55;;;;;;;16.29;37.18;94370.84;5034428;28;20022;-75
2022/11/03 03:43:11;;;;;;;7.68;3.65;;;;;;;16.25;37.09;94370.72;5037335;28;20029;-76
2022/11/03 03:45:37;;;;;;;7.13;4.43;;;;;;;16.37;37.71;94390.69;5037058;28;20021;-75
2022/11/03 03:48:05;;;;;;;11.43;4.10;;;;;;;16.27;37.92;94394.56;5035505;28;20044;-76
2022/11/03 03:50:34;;;;;;;7.25;4.15;;;;;;;16.26;38.11;94407.19;5035356;28;20503;-75
2022/11/03 03:53:01;;;;;;;6.35;4.20;;;;;;;16.26;37.72;94404.50;5037376;28;20028;-75
2022/11/03 03:55:37;;;;;;;6.25;4.03;;;;;;;16.20;37.84;94403.16;5036681;28;20047;-75
2022/11/03 03:58:06;;;;;;;10.18;5.03;;;;;;;16.15;37.96;94397.22;5035159;28;20500;-75
2022/11/03 04:00:32;;;;;;;7.90;3.95;;;;;;;16.16;37.90;94394.22;5035971;28;20499;-76
2022/11/03 04:02:58;;;;;;;6.72;3.97;;;;;;;16.25;37.94;94394.09;5036850;28;20104;-76
2022/11/03 04:05:25;;;;;;;9.80;5.00;;;;;;;16.29;37.94;94400.34;5037543;28;20604;-75
2022/11/03 04:07:50;;;;;;;7.97;4.60;;;;;;;16.31;37.95;94401.63;5037325;28;20029;-75
2022/11/03 04:10:20;;;;;;;6.93;4.45;;;;;;;16.25;38.23;94404.84;5037884;28;20762;-75
2022/11/03 04:23:59;;;;;;;11.95;5.28;;;;;;;15.79;39.12;94387.22;4997442;28;20486;-75
2022/11/03 04:26:26;;;;;;;9.32;4.68;;;;;;;15.66;38.81;94377.56;4996279;28;20018;-76
2022/11/03 04:28:52;;;;;;;11.30;6.15;;;;;;;15.73;39.32;94396.59;4995855;28;20428;-76
2022/11/03 04:31:18;;;;;;;15.60;6.82;;;;;;;15.66;39.63;94393.63;4996635;28;20561;-75
2022/11/03 04:33:45;;;;;;;10.20;5.97;;;;;;;15.48;39.76;94386.88;4996330;28;20029;-75
2022/11/03 04:36:23;;;;;;;7.55;4.68;;;;;;;15.47;39.64;94396.81;4997044;28;20496;-75
2022/11/03 04:38:50;;;;;;;8.52;4.90;;;;;;;15.46;39.55;94401.38;4997388;28;20470;-76
2022/11/03 04:41:22;;;;;;;6.88;4.43;;;;;;;15.51;39.48;94397.72;4995085;28;20382;-76
2022/11/03 04:43:49;;;;;;;11.95;5.28;;;;;;;15.40;39.59;94388.50;4998174;28;20159;-75
2022/11/03 04:46:16;;;;;;;12.43;5.53;;;;;;;15.33;39.50;94380.19;4997829;28;20033;-75
2022/11/03 04:48:42;;;;;;;15.35;4.65;;;;;;;15.24;39.52;94366.09;4996483;28;20028;-75
2022/11/03 04:51:21;;;;;;;8.23;5.18;;;;;;;15.22;39.90;94374.47;4995667;28;20049;-75
2022/11/03 04:53:53;;;;;;;16.75;5.55;;;;;;;15.36;39.60;94409.81;4997818;28;20021;-75
2022/11/03 04:56:22;;;;;;;13.55;6.68;;;;;;;15.25;40.04;94389.13;4995239;28;20072;-75
2022/11/03 04:58:47;;;;;;;14.27;5.82;;;;;;;15.25;39.73;94395.25;4998144;28;20589;-75
2022/11/03 05:01:15;;;;;;;12.25;5.18;;;;;;;15.16;40.04;94389.16;4994387;28;20030;-75
2022/11/03 05:03:42;;;;;;;13.50;5.93;;;;;;;15.12;40.30;94395.50;4996386;28;20569;-76
2022/11/03 05:06:16;;;;;;;11.90;4.63;;;;;;;15.07;40.67;94404.53;4996876;28;20030;-75
2022/11/03 05:08:45;;;;;;;12.32;5.10;;;;;;;14.95;40.46;94385.72;4996060;28;20022;-76
2022/11/03 05:11:37;;;;;;;11.25;5.38;;;;;;;14.99;40.55;94397.34;4996659;28;20034;-76
2022/11/03 05:14:18;;;;;;;12.82;4.63;;;;;;;14.92;40.61;94395.16;4991604;28;20038;-75
2022/11/03 05:16:46;;;;;;;11.73;5.00;;;;;;;14.87;40.71;94389.22;5005165;28;20371;-75
2022/11/03 05:19:29;;;;;;;12.07;5.22;;;;;;;14.95;40.85;94410.59;5035182;28;20025;-75
2022/11/03 05:21:58;;;;;;;9.23;4.97;;;;;;;14.78;40.89;94383.94;5016626;28;20448;-75
2022/11/03 05:24:24;;;;;;;10.02;5.43;;;;;;;14.98;40.79;94415.31;5034399;28;20514;-75
2022/11/03 05:26:50;;;;;;;8.88;5.25;;;;;;;14.91;40.96;94400.88;5032165;28;20480;-75
2022/11/03 05:29:22;;;;;;;9.07;4.53;;;;;;;14.95;40.93;94407.16;5033736;28;20032;-75
2022/11/03 05:31:49;;;;;;;11.57;3.70;;;;;;;14.79;40.81;94392.75;5034575;28;20033;-75
2022/11/03 05:34:30;;;;;;;11.38;4.40;;;;;;;14.93;40.87;94420.84;5026077;28;20055;-75
2022/11/03 05:37:29;;;;;;;11.20;4.50;;;;;;;15.00;41.13;94425.69;5029954;28;20037;-75
2022/11/03 05:40:02;;;;;;;7.63;3.95;;;;;;;14.98;41.05;94426.00;5027332;28;20041;-74
2022/11/03 05:42:33;;;;;;;9.63;3.92;;;;;;;14.98;41.15;94430.59;5032475;28;20485;-75
2022/11/03 05:45:00;;;;;;;12.68;4.70;;;;;;;14.83;41.25;94409.72;5034445;28;20028;-76
2022/11/03 05:47:32;;;;;;;6.60;3.92;;;;;;;15.01;41.04;94443.31;5036750;28;20341;-75
2022/11/03 05:50:20;;;;;;;6.25;4.40;;;;;;;15.00;41.13;94447.13;5036180;28;20082;-75
2022/11/03 05:52:47;;;;;;;14.18;4.20;;;;;;;15.08;41.12;94456.22;5019527;28;20024;-74
2022/11/03 05:55:21;;;;;;;10.43;3.90;;;;;;;15.09;41.11;94450.53;5036112;28;20033;-75
2022/11/03 05:57:47;;;;;;;12.55;4.00;;;;;;;15.10;41.15;94448.63;5034354;28;20025;-76
2022/11/03 06:00:38;;;;;;;8.93;4.82;;;;;;;15.19;41.34;94460.88;5018118;28;20025;-75
2022/11/03 06:03:04;;;;;;;15.48;4.43;;;;;;;15.20;41.78;94467.81;5033673;28;20037;-75
2022/11/03 06:05:32;;;;;;;11.80;4.88;;;;;;;15.13;41.76;94446.09;5033313;28;20345;-75
2022/11/03 06:08:00;;;;;;;11.98;5.78;;;;;;;15.26;41.84;94466.47;5035804;28;20028;-75
2022/11/03 06:10:30;;;;;;;19.05;7.25;;;;;;;15.26;41.88;94461.13;5013572;28;20849;-76
2022/11/03 06:13:00;;;;;;;13.95;7.05;;;;;;;15.35;41.39;94463.75;5033822;28;20037;-75
2022/11/03 06:15:32;;;;;;;15.45;6.18;;;;;;;15.34;41.63;94462.97;5033652;28;20531;-75
2022/11/03 06:17:59;;;;;;;14.00;7.07;;;;;;;15.43;40.90;94460.22;5015816;28;20483;-76
2022/11/03 06:20:25;;;;;;;12.23;6.40;;;;;;;15.50;41.23;94459.72;5032985;28;20435;-76
2022/11/03 06:22:54;;;;;;;12.68;7.65;;;;;;;15.50;40.94;94444.41;5033021;28;20565;-75
2022/11/03 06:25:22;;;;;;;10.98;5.55;;;;;;;15.76;40.92;94479.03;5030804;28;20488;-75
2022/11/03 06:27:48;;;;;;;12.55;6.47;;;;;;;15.78;41.05;94482.19;5031775;28;20138;-76
2022/11/03 06:30:37;;;;;;;11.43;6.13;;;;;;;15.84;40.84;94486.25;5033800;28;20048;-75
2022/11/03 06:33:17;;;;;;;19.02;7.72;;;;;;;15.44;41.25;94457.25;5035339;28;20029;-75
2022/11/03 06:35:43;;;;;;;14.07;8.05;;;;;;;15.56;41.42;94475.25;5035544;28;20029;-76
2022/11/03 06:38:19;;;;;;;14.70;7.95;;;;;;;15.72;41.21;94491.53;5033513;28;20032;-75
2022/11/03 06:40:47;;;;;;;18.33;9.10;;;;;;;15.54;41.17;94461.41;5032740;28;20025;-76
2022/11/03 06:43:18;;;;;;;16.17;7.57;;;;;;;15.72;40.91;94488.88;5025425;28;20025;-76
2022/11/03 06:45:48;;;;;;;13.45;7.22;;;;;;;15.85;40.96;94477.84;5016448;28;20025;-76
2022/11/03 06:48:20;;;;;;;11.63;7.75;;;;;;;15.88;40.31;94476.44;5014288;28;20021;-75
2022/11/03 06:50:46;;;;;;;15.77;7.50;;;;;;;15.93;40.37;94470.84;5013499;28;20098;-75
2022/11/03 06:53:18;;;;;;;20.95;7.03;;;;;;;16.17;40.15;94475.50;5030985;28;20028;-77
2022/11/03 06:55:43;;;;;;;10.50;6.68;;;;;;;16.36;39.83;94497.28;5017254;28;20021;-75
2022/11/03 06:58:35;;;;;;;14.10;7.63;;;;;;;16.43;39.86;94492.13;5036721;28;20369;-75
2022/11/03 07:01:08;;;;;;;10.98;7.10;;;;;;;16.25;39.86;94464.66;5033732;28;20121;-75
2022/11/03 07:03:36;;;;;;;17.75;8.15;;;;;;;16.37;39.71;94472.00;5038553;28;20524;-75
2022/11/03 07:06:25;;;;;;;12.07;8.93;;;;;;;16.47;40.03;94489.56;5013721;28;20040;-75
2022/11/03 07:08:56;;;;;;;16.92;8.27;;;;;;;16.57;39.61;94487.25;5030550;28;20028;-76
2022/11/03 07:11:24;;;;;;;21.25;11.10;;;;;;;16.55;39.47;94478.72;5033505;28;20052;-75
2022/11/03 07:13:54;;;;;;;14.52;8.50;;;;;;;16.56;39.64;94472.25;5035534;28;20037;-75
2022/11/03 07:16:33;;;;;;;16.23;8.23;;;;;;;16.62;40.02;94486.25;5034414;28;20052;-76
2022/11/03 07:19:02;;;;;;;17.60;8.73;;;;;;;16.62;40.12;94483.56;5034906;28;20028;-76
2022/11/03 07:21:42;;;;;;;20.30;9.45;;;;;;;16.69;39.92;94484.56;5033468;28;20234;-75
2022/11/03 07:24:21;;;;;;;15.35;9.48;;;;;;;16.79;39.80;94483.31;5035064;28;20040;-75
2022/11/03 07:26:47;;;;;;;22.65;9.13;;;;;;;16.78;39.59;94473.69;5018265;28;20082;-75
2022/11/03 07:29:21;;;;;;;20.10;9.90;;;;;;;16.83;39.35;94473.47;5034552;28;20078;-76
2022/11/03 07:31:50;;;;;;;23.70;8.85;;;;;;;16.87;38.98;94468.19;5034633;28;20078;-75
2022/11/03 07:34:20;;;;;;;18.30;9.23;;;;;;;17.03;39.30;94483.31;5035262;28;20493;-77
2022/11/03 07:36:46;;;;;;;13.90;8.82;;;;;;;17.12;39.54;94481.28;5033419;28;20363;-77
2022/11/03 07:39:16;;;;;;;24.15;9.48;;;;;;;17.09;39.49;94454.31;5034159;28;20180;-75
2022/11/03 07:41:43;;;;;;;26.48;9.65;;;;;;;16.89;39.19;94466.75;5036246;28;20028;-75
2022/11/03 07:44:14;;;;;;;18.27;9.88;;;;;;;17.07;39.02;94465.41;5035016;28;20499;-76
2022/11/03 07:46:42;;;;;;;17.95;8.93;;;;;;;17.22;38.79;94474.69;5035078;28;20024;-75
2022/11/03 07:49:18;;;;;;;13.98;8.73;;;;;;;17.34;38.63;94473.91;5036591;28;20036;-75
2022/11/03 07:51:44;;;;;;;18.23;11.07;;;;;;;17.33;39.00;94483.09;5026578;28;20052;-76
2022/11/03 07:54:25;;;;;;;13.85;8.05;;;;;;;17.38;38.29;94482.84;5036331;28;20055;-75
2022/11/03 07:56:55;;;;;;;16.33;9.15;;;;;;;17.26;38.62;94485.59;5024953;28;20548;-76
2022/11/03 07:59:40;;;;;;;15.38;10.07;;;;;;;17.34;39.01;94481.97;5032533;28;20488;-74
2022/11/03 08:02:24;;;;;;;18.20;9.70;;;;;;;17.40;38.52;94465.28;5035857;28;20040;-74
2022/11/03 08:04:50;;;;;;;16.65;9.57;;;;;;;17.42;38.33;94462.22;5035839;28;20025;-74
2022/11/03 08:07:16;;;;;;;16.27;9.73;;;;;;;17.46;38.32;94460.41;5032545;28;20085;-74
2022/11/03 08:09:41;;;;;;;20.60;8.35;;;;;;;17.45;38.60;94456.19;5032780;28;20392;-74
2022/11/03 08:12:06;;;;;;;14.52;9.02;;;;;;;17.31;38.70;94440.41;5033930;28;20566;-75
2022/11/03 08:14:32;;;;;;;14.60;9.00;;;;;;;17.31;38.70;94413.53;5033569;28;20025;-75
2022/11/03 08:16:58;;;;;;;14.02;7.45;;;;;;;17.47;38.15;94435.88;5035009;28;20491;-75
2022/11/03 08:19:23;;;;;;;15.90;8.70;;;;;;;17.34;37.98;94420.13;5015546;28;20733;-74
2022/11/03 08:21:48;;;;;;;14.85;7.47;;;;;;;17.40;38.41;94432.22;5033592;28;20028;-75
2022/11/03 08:24:14;;;;;;;16.00;8.43;;;;;;;17.40;38.30;94433.00;5033424;28;20171;-74
2022/11/03 08:26:39;;;;;;;15.05;7.82;;;;;;;17.36;38.71;94442.06;5018086;28;20064;-75
2022/11/03 08:29:05;;;;;;;16.48;8.63;;;;;;;17.26;38.43;94407.63;5035443;28;20507;-75
2022/11/03 08:31:30;;;;;;;15.10;8.13;;;;;;;17.39;38.44;94403.75;5007293;28;20437;-75
2022/11/03 08:33:55;;;;;;;15.88;8.02;;;;;;;17.72;38.46;94436.56;5028673;28;20033;-75
2022/11/03 08:36:21;;;;;;;17.05;10.13;;;;;;;17.84;38.87;94433.84;5011861;28;20481;-76
2022/11/03 08:38:46;;;;;;;21.05;9.90;;;;;;;17.74;38.21;94409.34;5030507;28;20443;-75
2022/11/03 08:41:12;;;;;;;14.15;8.50;;;;;;;17.95;38.28;94426.06;5031659;28;20128;-75
2022/11/03 08:43:37;;;;;;;21.27;9.85;;;;;;;17.78;38.41;94423.66;5032946;28;20037;-74
2022/11/03 08:46:03;;;;;;;16.13;10.20;;;;;;;17.92;38.41;94438.28;5030878;28;20041;-75
2022/11/03 08:48:28;;;;;;;16.08;10.20;;;;;;;17.91;38.59;94441.31;5032466;28;20028;-74
2022/11/03 08:50:54;;;;;;;16.83;9.45;;;;;;;17.68;38.57;94416.09;5014941;28;20633;-78
2022/11/03 08:53:21;;;;;;;19.40;8.98;;;;;;;17.86;38.29;94422.72;5032644;28;20025;-74
2022/11/03 08:55:47;;;;;;;16.25;9.52;;;;;;;18.02;38.11;94437.81;5030076;28;20260;-74
2022/11/03 08:58:12;;;;;;;17.42;10.02;;;;;;;17.82;38.76;94405.72;5014122;28;20037;-75
2022/11/03 09:00:38;;;;;;;18.20;9.85;;;;;;;17.76;38.59;94415.94;5030237;28;20237;-75
2022/11/03 09:03:03;;;;;;;19.33;9.40;;;;;;;17.95;38.60;94432.22;5032683;28;20388;-74
2022/11/03 09:05:29;;;;;;;20.92;10.80;;;;;;;17.83;38.50;94405.38;5031123;28;20374;-76
2022/11/03 09:07:54;;;;;;;20.90;10.50;;;;;;;17.83;38.70;94416.13;5033656;28;20052;-75
2022/11/03 09:10:19;;;;;;;16.95;10.23;;;;;;;17.87;38.80;94430.47;5030431;28;20078;-75
2022/11/03 09:12:45;;;;;;;17.08;8.93;;;;;;;18.07;38.69;94422.53;5031653;28;20044;-76
2022/11/03 09:15:10;;;;;;;21.42;10.05;;;;;;;17.99;38.16;94421.59;5032745;28;20443;-76
2022/11/03 09:17:36;;;;;;;23.27;9.20;;;;;;;17.98;38.40;94426.19;5032909;28;20049;-77
2022/11/03 09:20:01;;;;;;;17.10;8.82;;;;;;;18.07;38.36;94417.16;5034282;28;20103;-77
2022/11/03 09:22:26;;;;;;;16.67;9.73;;;;;;;17.80;38.07;94349.53;5033708;28;20044;-77
2022/11/03 09:24:52;;;;;;;19.25;10.38;;;;;;;18.19;38.28;94403.59;5034921;28;20029;-77
2022/11/03 09:27:17;;;;;;;17.77;9.38;;;;;;;18.02;37.86;94386.69;5032898;28;20043;-75
2022/11/03 09:29:43;;;;;;;17.17;8.85;;;;;;;18.11;38.46;94404.56;5028338;28;20556;-76
2022/11/03 09:32:08;;;;;;;14.50;9.45;;;;;;;18.03;38.25;94392.84;5028943;28;20098;-76
2022/11/03 09:34:33;;;;;;;18.13;10.73;;;;;;;18.05;37.97;94393.25;5033915;28;20586;-76
2022/11/03 09:36:59;;;;;;;14.52;8.13;;;;;;;18.19;38.24;94403.59;5032355;28;20029;-76
2022/11/03 09:39:24;;;;;;;20.85;9.30;;;;;;;18.09;38.18;94374.53;5028948;28;20091;-77
2022/11/03 09:41:52;;;;;;;14.90;8.75;;;;;;;18.35;38.12;94399.00;5031970;28;20020;-76
2022/11/03 09:44:18;;;;;;;19.73;9.77;;;;;;;18.28;37.81;94377.31;5032726;28;20017;-76
2022/11/03 09:46:43;;;;;;;14.00;8.40;;;;;;;18.43;37.43;94388.06;5031195;28;20041;-76
2022/11/03 09:49:13;;;;;;;16.17;9.10;;;;;;;18.45;37.42;94369.66;5031880;28;20329;-76
2022/11/03 09:51:40;;;;;;;16.95;7.80;;;;;;;18.69;37.66;94384.03;5014683;28;20017;-75
2022/11/03 09:54:05;;;;;;;14.90;9.10;;;;;;;18.71;37.31;94379.13;5032012;28;20455;-78
2022/11/03 09:56:34;;;;;;;14.93;8.60;;;;;;;18.54;37.15;94347.91;5032259;28;20036;-76
2022/11/03 09:59:00;;;;;;;16.40;7.63;;;;;;;18.79;36.90;94378.16;5028328;28;20408;-75
2022/11/03 10:01:26;;;;;;;17.40;7.57;;;;;;;18.86;37.00;94375.63;5031284;28;20025;-76
2022/11/03 10:03:56;;;;;;;23.17;9.27;;;;;;;18.84;36.80;94359.00;5032514;28;20477;-75
2022/11/03 10:06:22;;;;;;;15.02;8.82;;;;;;;18.86;36.24;94362.94;5025775;28;20029;-76
2022/11/03 10:08:48;;;;;;;19.13;7.57;;;;;;;18.88;36.38;94352.56;5032391;28;20029;-75
2022/11/03 10:11:14;;;;;;;15.82;7.30;;;;;;;18.65;36.43;94329.31;5033507;28;20039;-76
2022/11/03 10:13:53;;;;;;;17.00;7.18;;;;;;;18.84;36.74;94337.44;5032599;28;20553;-75
2022/11/03 10:16:22;;;;;;;20.08;7.70;;;;;;;18.86;36.94;94351.38;5033715;28;20175;-76
2022/11/03 10:18:48;;;;;;;16.02;8.88;;;;;;;18.63;36.72;94321.56;5033506;28;20470;-76
2022/11/03 10:21:19;;;;;;;10.10;6.97;;;;;;;18.89;36.37;94331.78;5031229;28;20033;-77
2022/11/03 10:23:45;;;;;;;12.88;7.60;;;;;;;19.04;36.34;94330.16;5032470;28;20041;-75
2022/11/03 10:26:15;;;;;;;21.50;8.65;;;;;;;19.07;35.77;94341.03;5006996;28;20020;-75
2022/11/03 10:29:03;;;;;;;17.67;7.80;;;;;;;19.12;35.38;94321.88;5032146;28;20634;-77
2022/11/03 10:31:40;;;;;;;12.45;6.30;;;;;;;19.04;35.09;94319.38;5032145;28;20036;-77
2022/11/03 10:34:23;;;;;;;10.43;5.60;;;;;;;19.11;34.49;94319.53;5028686;28;20032;-76
2022/11/03 10:36:49;;;;;;;11.30;6.00;;;;;;;19.26;35.40;94326.78;5031099;28;20174;-76
2022/11/03 10:39:32;;;;;;;11.48;6.65;;;;;;;19.38;34.79;94320.44;5020045;28;20147;-76
2022/11/03 10:41:58;;;;;;;7.57;5.22;;;;;;;19.48;33.95;94323.38;5037585;28;20106;-76
2022/11/03 10:44:28;;;;;;;10.52;5.00;;;;;;;19.53;33.81;94315.00;5037479;28;20033;-77
2022/11/03 10:47:02;;;;;;;13.68;5.22;;;;;;;19.52;33.28;94313.44;5038968;28;20519;-77
2022/11/03 10:49:34;;;;;;;10.88;5.05;;;;;;;19.47;33.55;94300.25;5020280;28;20044;-76
2022/11/03 10:52:20;;;;;;;10.27;5.13;;;;;;;19.47;33.28;94302.94;5037333;28;20701;-75
2022/11/03 10:54:46;;;;;;;8.65;4.65;;;;;;;19.34;32.84;94258.38;5036826;28;21181;-75
2022/11/03 10:57:13;;;;;;;7.70;3.05;;;;;;;19.56;32.75;94291.91;5036789;28;20039;-76
2022/11/03 10:59:39;;;;;;;10.23;4.05;;;;;;;19.51;32.47;94267.94;5036736;28;20384;-77
2022/11/03 11:02:31;;;;;;;8.90;3.95;;;;;;;19.65;31.98;94284.41;5037568;28;20095;-77
2022/11/03 11:05:00;;;;;;;9.10;3.97;;;;;;;19.64;31.71;94280.91;5032132;28;20041;-76
2022/11/03 11:07:38;;;;;;;13.05;4.43;;;;;;;19.42;32.00;94275.44;5037800;28;20048;-76
2022/11/03 11:10:16;;;;;;;6.70;3.55;;;;;;;19.55;32.01;94272.28;5021357;28;20116;-76
2022/11/03 11:13:21;;;;;;;7.97;3.47;;;;;;;19.47;31.11;94261.69;5034305;28;20146;-75
2022/11/03 11:15:55;;;;;;;5.75;2.20;;;;;;;19.51;31.54;94268.72;4970387;28;20158;-75
2022/11/03 11:18:41;;;;;;;9.27;1.75;;;;;;;19.49;30.18;94264.81;4972690;28;20485;-75
2022/11/03 11:21:16;;;;;;;4.30;1.92;;;;;;;19.62;30.70;94263.50;4982430;28;20514;-75
2022/11/03 11:23:43;;;;;;;6.63;2.42;;;;;;;19.59;30.01;94242.66;5031081;28;20706;-76
2022/11/03 11:26:08;;;;;;;5.50;2.63;;;;;;;19.54;31.53;94256.44;5030703;28;20033;-76
2022/11/03 11:29:10;;;;;;;8.20;2.55;;;;;;;19.51;32.60;94239.03;5032713;28;20480;-75
2022/11/03 11:31:35;;;;;;;6.07;2.42;;;;;;;19.66;31.50;94242.75;5001502;28;20123;-76
2022/11/03 11:34:09;;;;;;;5.97;2.08;;;;;;;19.84;31.35;94249.25;5035212;28;20039;-75
2022/11/03 11:36:40;;;;;;;6.85;2.05;;;;;;;19.80;30.04;94234.91;5034292;28;20091;-76
2022/11/03 11:39:30;;;;;;;6.25;2.00;;;;;;;19.86;29.87;94235.38;5034729;28;20543;-76
2022/11/03 11:42:16;;;;;;;14.43;3.10;;;;;;;19.94;29.92;94239.75;5023912;28;20040;-76
2022/11/03 11:44:41;;;;;;;8.68;3.10;;;;;;;20.04;31.31;94229.09;5034019;28;20037;-76
2022/11/03 11:47:22;;;;;;;4.78;2.30;;;;;;;20.02;31.19;94233.31;5036364;28;20024;-76
2022/11/03 11:49:59;;;;;;;8.13;2.63;;;;;;;19.85;31.51;94206.84;5035496;28;20468;-74
2022/11/03 11:52:25;;;;;;;7.60;2.75;;;;;;;19.98;30.00;94211.69;5032572;28;20112;-75
2022/11/03 11:54:50;;;;;;;7.55;3.13;;;;;;;20.10;30.16;94191.78;5034872;28;20024;-76
2022/11/03 11:57:20;;;;;;;7.28;2.08;;;;;;;20.07;30.04;94184.41;5036121;28;20491;-75
2022/11/03 11:59:47;;;;;;;4.28;1.95;;;;;;;20.16;29.60;94198.44;5035382;28;20028;-76